createdAt,value
2023-06-22T00:02:54.377Z,93.99
2023-06-22T00:07:57.292Z,94.09
2023-06-22T00:13:00.224Z,94.25
2023-06-22T00:18:03.843Z,94.34
2023-06-22T00:23:11.105Z,94.81
2023-06-22T00:28:13.894Z,95.15
2023-06-22T00:33:17.697Z,94.94
2023-06-22T00:38:21.880Z,95.06
2023-06-22T00:43:24.677Z,95.21
2023-06-22T00:48:27.939Z,94.94
2023-06-22T00:53:34.643Z,95.42
2023-06-22T00:58:39.003Z,96.16
2023-06-22T01:03:41.903Z,96.76
2023-06-22T01:08:52.881Z,96.98
2023-06-22T01:14:07.824Z,96.10
2023-06-22T01:19:28.851Z,95.31
2023-06-22T01:24:43.036Z,95.29
2023-06-22T01:29:46.806Z,95.17
2023-06-22T01:34:50.837Z,95.98
2023-06-22T01:39:56.216Z,96.02
2023-06-22T01:44:59.782Z,95.92
2023-06-22T01:50:04.917Z,96.41
2023-06-22T01:55:09.336Z,97.18
2023-06-22T02:00:20.149Z,96.84
2023-06-22T02:05:26.385Z,96.39
2023-06-22T02:10:30.718Z,96.51
2023-06-22T02:15:34.822Z,95.93
2023-06-22T02:20:42.553Z,96.06
2023-06-22T02:25:45.630Z,96.63
2023-06-22T02:30:48.434Z,96.76
2023-06-22T02:35:53.365Z,97.38
2023-06-22T02:40:56.170Z,97.53
2023-06-22T02:45:59.627Z,97.84
2023-06-22T02:51:02.434Z,98.15
2023-06-22T02:56:08.499Z,98.22
2023-06-22T03:01:11.464Z,98.19
2023-06-22T03:06:15.442Z,97.64
2023-06-22T03:11:18.419Z,96.94
2023-06-22T03:16:21.195Z,96.48
2023-06-22T03:21:27.310Z,95.74
2023-06-22T03:26:31.239Z,95.38
2023-06-22T03:31:36.550Z,94.56
2023-06-22T03:36:39.407Z,94.32
2023-06-22T03:41:42.315Z,94.41
2023-06-22T03:46:45.174Z,93.87
2023-06-22T03:51:48.788Z,93.26
2023-06-22T03:56:51.647Z,92.70
2023-06-22T04:01:54.488Z,91.11
2023-06-22T04:06:57.294Z,86.89
2023-06-22T04:12:00.151Z,78.09
2023-06-22T04:17:03.003Z,71.85
2023-06-22T04:22:08.235Z,64.81
2023-06-22T04:27:11.118Z,60.95
2023-06-22T04:32:14.018Z,56.89
2023-06-22T04:37:17.010Z,55.55
2023-06-22T04:42:20.327Z,53.43
2023-06-22T04:47:23.156Z,53.50
2023-06-22T04:52:26.059Z,53.33
2023-06-22T04:57:34.014Z,53.15
2023-06-22T05:02:36.948Z,51.35
2023-06-22T05:07:44.927Z,48.38
2023-06-22T05:12:48.323Z,47.69
2023-06-22T05:17:52.958Z,48.67
2023-06-22T05:22:55.824Z,48.83
2023-06-22T05:27:58.834Z,50.47
2023-06-22T05:33:01.825Z,54.38
2023-06-22T05:38:04.641Z,57.17
2023-06-22T05:43:07.599Z,59.90
2023-06-22T05:48:10.429Z,62.02
2023-06-22T05:53:13.354Z,64.20
2023-06-22T05:58:16.496Z,65.76
2023-06-22T06:03:19.306Z,67.00
2023-06-22T06:08:22.530Z,68.53
2023-06-22T06:13:25.778Z,69.68
2023-06-22T06:18:28.615Z,70.54
2023-06-22T06:23:31.506Z,71.46
2023-06-22T06:28:35.046Z,71.83
2023-06-22T06:33:38.184Z,72.46
2023-06-22T06:38:47.495Z,72.85
2023-06-22T06:43:53.803Z,73.10
2023-06-22T06:48:56.783Z,72.82
2023-06-22T06:53:59.620Z,72.55
2023-06-22T06:59:02.795Z,69.91
2023-06-22T07:04:05.779Z,65.25
2023-06-22T07:09:15.317Z,64.70
2023-06-22T07:14:18.322Z,65.22
2023-06-22T07:19:32.713Z,65.68
2023-06-22T07:24:35.665Z,66.49
2023-06-22T07:29:40.908Z,67.46
2023-06-22T07:34:45.407Z,68.78
2023-06-22T07:39:54.934Z,69.41
2023-06-22T07:44:57.848Z,69.37
2023-06-22T07:50:02.823Z,69.44
2023-06-22T07:55:06.185Z,69.97
2023-06-22T08:00:16.018Z,70.44
2023-06-22T08:05:22.470Z,70.68
2023-06-22T08:10:37.676Z,70.73
2023-06-22T08:15:43.707Z,70.69
2023-06-22T08:20:46.903Z,70.67
2023-06-22T08:25:51.437Z,71.45
2023-06-22T08:30:54.542Z,71.78
2023-06-22T08:36:02.538Z,72.20
2023-06-22T08:41:05.581Z,71.86
2023-06-22T08:46:08.503Z,71.57
2023-06-22T08:51:11.400Z,71.42
2023-06-22T08:56:14.551Z,70.87
2023-06-22T09:01:17.992Z,69.51
2023-06-22T09:06:23.509Z,67.82
2023-06-22T09:11:28.909Z,64.95
2023-06-22T09:16:32.024Z,61.11
2023-06-22T09:21:35.458Z,60.43
2023-06-22T09:26:46.290Z,56.88
2023-06-22T09:31:49.278Z,54.41
2023-06-22T09:36:54.398Z,52.47
2023-06-22T09:42:01.208Z,52.26
2023-06-22T09:47:04.826Z,52.35
2023-06-22T09:52:09.163Z,53.19
2023-06-22T09:57:13.368Z,52.61
2023-06-22T10:02:18.880Z,51.82
2023-06-22T10:07:22.196Z,51.07
2023-06-22T10:12:24.966Z,50.92
2023-06-22T10:17:29.882Z,50.78
2023-06-22T10:22:32.804Z,49.91
2023-06-22T10:27:36.716Z,49.43
2023-06-22T10:32:40.312Z,48.98
2023-06-22T10:37:47.483Z,50.10
2023-06-22T10:42:51.349Z,50.30
2023-06-22T10:47:54.365Z,50.16
2023-06-22T10:53:00.339Z,49.15
2023-06-22T10:58:04.518Z,47.70
2023-06-22T11:03:11.671Z,48.66
2023-06-22T11:08:16.122Z,49.36
2023-06-22T11:13:19.773Z,49.73
2023-06-22T11:18:24.328Z,49.86
2023-06-22T11:23:28.943Z,48.79
2023-06-22T11:28:32.020Z,48.64
2023-06-22T11:33:35.152Z,47.40
2023-06-22T11:38:40.176Z,47.51
2023-06-22T11:43:42.982Z,46.53
2023-06-22T11:48:46.732Z,44.31
2023-06-22T11:53:50.196Z,44.68
2023-06-22T11:58:53.412Z,43.78
2023-06-22T12:03:56.359Z,42.76
2023-06-22T12:08:59.620Z,43.27
2023-06-22T12:14:03.709Z,43.23
2023-06-22T12:19:06.668Z,42.93
2023-06-22T12:24:09.486Z,44.05
2023-06-22T12:29:12.405Z,43.59
2023-06-22T12:34:17.025Z,44.85
2023-06-22T12:39:19.810Z,44.28
2023-06-22T12:44:22.596Z,42.58
2023-06-22T12:49:25.586Z,43.00
2023-06-22T12:54:31.379Z,44.90
2023-06-22T12:59:36.072Z,45.40
2023-06-22T13:04:39.017Z,45.85
2023-06-22T13:09:41.977Z,44.26
2023-06-22T13:14:44.869Z,44.56
2023-06-22T13:19:48.149Z,44.95
2023-06-22T13:24:51.003Z,45.38
2023-06-22T13:29:54.805Z,45.73
2023-06-22T13:34:57.624Z,45.87
2023-06-22T13:40:00.943Z,44.88
2023-06-22T13:45:04.931Z,43.59
2023-06-22T13:50:13.936Z,44.98
2023-06-22T13:55:17.114Z,44.62
2023-06-22T14:00:20.915Z,44.94
2023-06-22T14:05:23.922Z,44.45
2023-06-22T14:10:27.553Z,44.10
2023-06-22T14:15:30.671Z,44.17
2023-06-22T14:20:34.024Z,44.07
2023-06-22T14:25:37.151Z,43.15
2023-06-22T14:30:40.119Z,42.95
2023-06-22T14:35:43.017Z,43.68
2023-06-22T14:41:05.958Z,42.66
2023-06-22T14:46:11.636Z,41.62
2023-06-22T14:51:17.353Z,41.25
2023-06-22T14:56:20.722Z,41.90
2023-06-22T15:01:26.727Z,42.44
2023-06-22T15:06:29.723Z,40.77
2023-06-22T15:11:33.318Z,40.94
2023-06-22T15:16:36.147Z,41.80
2023-06-22T15:21:40.459Z,42.23
2023-06-22T15:26:43.477Z,42.42
2023-06-22T15:31:48.572Z,43.25
2023-06-22T15:36:53.142Z,43.58
2023-06-22T15:41:56.969Z,44.19
2023-06-22T15:47:00.216Z,43.42
2023-06-22T15:52:03.563Z,42.10
2023-06-22T15:57:06.656Z,43.17
2023-06-22T16:02:10.604Z,44.04
2023-06-22T16:07:14.501Z,44.76
2023-06-22T16:12:18.213Z,44.70
2023-06-22T16:17:23.858Z,43.98
2023-06-22T16:22:26.726Z,44.96
2023-06-22T16:27:33.903Z,44.79
2023-06-22T16:32:36.967Z,44.44
2023-06-22T16:37:39.842Z,44.75
2023-06-22T16:42:47.046Z,45.35
2023-06-22T16:47:51.735Z,45.24
2023-06-22T16:52:54.574Z,45.51
2023-06-22T16:57:59.574Z,45.83
2023-06-22T17:03:07.210Z,46.51
2023-06-22T17:08:15.833Z,46.67
2023-06-22T17:13:23.343Z,46.42
2023-06-22T17:18:27.363Z,46.65
2023-06-22T17:23:32.624Z,47.08
2023-06-22T17:28:53.072Z,47.22
2023-06-22T17:33:59.312Z,47.30
2023-06-22T17:39:02.100Z,47.57
2023-06-22T17:44:09.002Z,47.49
2023-06-22T17:49:15.469Z,47.97
2023-06-22T17:54:18.347Z,48.64
2023-06-22T17:59:21.352Z,48.91
2023-06-22T18:04:26.249Z,48.96
2023-06-22T18:09:30.289Z,49.07
2023-06-22T18:14:35.564Z,49.32
2023-06-22T18:19:41.821Z,49.61
2023-06-22T18:24:45.713Z,50.89
2023-06-22T18:29:51.488Z,54.65
2023-06-22T18:34:54.321Z,56.15
2023-06-22T18:39:58.571Z,57.91
2023-06-22T18:45:01.471Z,58.60
2023-06-22T18:50:09.657Z,59.97
2023-06-22T18:55:14.066Z,60.80
2023-06-22T19:00:31.634Z,61.79
2023-06-22T19:05:42.755Z,62.57
2023-06-22T19:10:45.722Z,62.77
2023-06-22T19:15:53.336Z,62.99
2023-06-22T19:21:12.054Z,63.94
2023-06-22T19:26:19.556Z,64.26
2023-06-22T19:31:24.953Z,63.81
2023-06-22T19:36:35.322Z,63.76
2023-06-22T19:41:38.439Z,63.85
2023-06-22T19:46:43.446Z,64.09
2023-06-22T19:51:46.413Z,64.29
2023-06-22T19:56:51.861Z,64.58
2023-06-22T20:01:54.801Z,65.32
2023-06-22T20:07:06.369Z,66.17
2023-06-22T20:12:24.636Z,66.30
2023-06-22T20:17:30.344Z,66.45
2023-06-22T20:22:46.627Z,66.68
2023-06-22T20:27:54.611Z,67.17
2023-06-22T20:32:57.571Z,68.05
2023-06-22T20:38:00.549Z,68.34
2023-06-22T20:43:03.649Z,68.63
2023-06-22T20:48:13.767Z,68.34
2023-06-22T20:53:18.920Z,68.48
2023-06-22T20:58:21.757Z,68.85
2023-06-22T21:03:24.630Z,69.51
2023-06-22T21:08:28.256Z,69.90
2023-06-22T21:13:31.483Z,70.02
2023-06-22T21:18:34.299Z,70.13
2023-06-22T21:23:37.150Z,70.51
2023-06-22T21:28:39.994Z,70.45
2023-06-22T21:33:42.970Z,70.33
2023-06-22T21:38:45.890Z,70.38
2023-06-22T21:43:49.838Z,70.57
2023-06-22T21:48:52.616Z,70.42
2023-06-22T21:53:55.552Z,70.30
2023-06-22T21:58:58.337Z,70.25
2023-06-22T22:04:01.211Z,70.11
2023-06-22T22:09:05.411Z,70.09
2023-06-22T22:14:09.940Z,70.23
2023-06-22T22:19:13.840Z,70.41
2023-06-22T22:24:16.630Z,70.50
2023-06-22T22:29:19.874Z,70.54
2023-06-22T22:34:22.789Z,70.42
2023-06-22T22:39:39.322Z,70.77
2023-06-22T22:44:42.900Z,71.07
2023-06-22T22:49:46.227Z,71.18
2023-06-22T22:54:49.475Z,71.42
2023-06-22T22:59:52.355Z,71.85
2023-06-22T23:05:00.078Z,72.17
2023-06-22T23:10:03.056Z,72.59
2023-06-22T23:15:08.222Z,72.75
2023-06-22T23:20:15.585Z,72.83
2023-06-22T23:25:18.898Z,73.04
2023-06-22T23:30:21.804Z,73.38
2023-06-22T23:35:24.660Z,73.62
2023-06-22T23:40:29.724Z,74.26
2023-06-22T23:45:32.814Z,74.92
2023-06-22T23:50:35.919Z,75.41
2023-06-22T23:55:39.336Z,75.84
